createdAt,value
2019-03-23T00:02:13.351Z,105.13
2019-03-23T00:04:41.997Z,105.37
2019-03-23T00:07:10.458Z,90.40
2019-03-23T00:09:38.905Z,85.23
2019-03-23T00:12:07.373Z,82.10
2019-03-23T00:14:35.833Z,91.03
2019-03-23T00:17:04.284Z,77.00
2019-03-23T00:19:32.737Z,80.87
2019-03-23T00:22:01.275Z,72.77
2019-03-23T00:24:29.723Z,75.40
2019-03-23T00:26:58.222Z,69.70
2019-03-23T00:29:26.748Z,60.90
2019-03-23T00:31:55.202Z,57.77
2019-03-23T00:34:23.667Z,52.67
2019-03-23T00:36:52.126Z,45.73
2019-03-23T00:39:20.597Z,52.93
2019-03-23T00:41:49.127Z,44.50
2019-03-23T00:44:17.687Z,47.73
2019-03-23T00:46:46.141Z,48.63
2019-03-23T00:49:14.758Z,48.70
2019-03-23T00:51:43.227Z,47.00
2019-03-23T00:54:11.763Z,50.47
2019-03-23T00:56:40.218Z,75.23
2019-03-23T00:59:08.718Z,70.43
2019-03-23T01:01:37.241Z,74.80
2019-03-23T01:04:05.764Z,81.27
2019-03-23T01:06:34.223Z,86.30
2019-03-23T01:09:02.669Z,83.13
2019-03-23T01:11:31.162Z,79.00
2019-03-23T01:13:59.739Z,83.83
2019-03-23T01:16:28.193Z,81.03
2019-03-23T01:18:56.665Z,75.70
2019-03-23T01:21:25.117Z,73.50
2019-03-23T01:23:53.615Z,72.20
2019-03-23T01:26:22.081Z,61.17
2019-03-23T01:28:50.619Z,54.43
2019-03-23T01:31:19.162Z,55.70
2019-03-23T01:33:47.609Z,54.03
2019-03-23T01:36:16.069Z,51.47
2019-03-23T01:38:44.565Z,53.63
2019-03-23T01:41:13.104Z,60.93
2019-03-23T01:43:41.562Z,59.17
2019-03-23T01:46:10.237Z,58.53
2019-03-23T01:48:38.703Z,60.40
2019-03-23T01:51:07.178Z,56.13
2019-03-23T01:53:35.648Z,54.43
2019-03-23T01:56:04.218Z,53.90
2019-03-23T01:58:32.688Z,62.17
2019-03-23T02:01:01.284Z,61.47
2019-03-23T02:03:29.748Z,66.67
2019-03-23T02:05:58.194Z,61.73
2019-03-23T02:08:26.729Z,64.77
2019-03-23T02:10:55.255Z,62.90
2019-03-23T02:13:23.731Z,55.37
2019-03-23T02:15:52.194Z,62.40
2019-03-23T02:18:20.933Z,64.13
2019-03-23T02:20:49.659Z,59.60
2019-03-23T02:23:18.155Z,67.00
2019-03-23T02:25:46.628Z,63.73
2019-03-23T02:28:15.171Z,54.57
2019-03-23T02:30:43.719Z,56.60
2019-03-23T02:33:12.170Z,62.17
2019-03-23T02:35:40.641Z,61.33
2019-03-23T02:38:09.171Z,59.10
2019-03-23T02:40:37.678Z,48.43
2019-03-23T02:43:06.213Z,56.80
2019-03-23T02:45:34.761Z,54.83
2019-03-23T02:48:03.280Z,56.33
2019-03-23T02:50:31.725Z,54.83
2019-03-23T02:53:00.226Z,54.13
2019-03-23T02:55:28.728Z,51.20
2019-03-23T02:57:57.478Z,56.60
2019-03-23T03:00:27.650Z,47.47
2019-03-23T03:02:56.355Z,43.97
2019-03-23T03:05:25.018Z,40.67
2019-03-23T03:07:53.489Z,38.33
2019-03-23T03:10:41.537Z,30.63
2019-03-23T03:13:10.805Z,37.80
2019-03-23T03:15:39.793Z,35.47
2019-03-23T03:18:08.799Z,40.93
2019-03-23T03:20:37.336Z,51.00
2019-03-23T03:23:06.004Z,46.77
2019-03-23T03:25:34.693Z,43.03
2019-03-23T03:28:03.219Z,36.90
2019-03-23T03:30:31.672Z,37.17
2019-03-23T03:33:00.150Z,34.20
2019-03-23T03:35:28.785Z,31.43
2019-03-23T03:37:57.542Z,22.97
2019-03-23T03:40:26.059Z,25.47
2019-03-23T03:42:54.618Z,30.33
2019-03-23T03:45:27.956Z,25.13
2019-03-23T03:47:56.778Z,19.27
2019-03-23T03:50:25.299Z,20.80
2019-03-23T03:52:53.751Z,26.90
2019-03-23T03:55:22.198Z,17.47
2019-03-23T03:57:50.695Z,19.47
2019-03-23T04:00:19.218Z,22.13
2019-03-23T04:02:47.728Z,20.17
2019-03-23T04:05:16.229Z,14.50
2019-03-23T04:07:44.931Z,17.83
2019-03-23T04:10:13.567Z,21.07
2019-03-23T04:12:42.089Z,21.67
2019-03-23T04:15:12.110Z,14.80
2019-03-23T04:17:40.657Z,17.17
2019-03-23T04:20:11.338Z,19.57
2019-03-23T04:22:40.158Z,19.13
2019-03-23T04:25:10.345Z,15.03
2019-03-23T04:27:39.000Z,22.37
2019-03-23T04:30:09.860Z,20.63
2019-03-23T04:32:38.568Z,21.10
2019-03-23T04:35:07.848Z,17.30
2019-03-23T04:37:36.423Z,17.03
2019-03-23T04:40:07.700Z,18.00
2019-03-23T04:42:36.219Z,18.87
2019-03-23T04:45:07.222Z,18.00
2019-03-23T04:47:35.696Z,14.67
2019-03-23T04:50:07.085Z,20.07
2019-03-23T04:52:35.546Z,18.57
2019-03-23T04:55:07.338Z,17.33
2019-03-23T04:57:35.791Z,21.53
2019-03-23T05:00:07.390Z,16.77
2019-03-23T05:02:35.877Z,16.97
2019-03-23T05:05:05.965Z,19.33
2019-03-23T05:07:34.410Z,20.27
2019-03-23T05:10:03.396Z,16.47
2019-03-23T05:12:31.858Z,21.37
2019-03-23T05:15:00.403Z,19.17
2019-03-23T05:17:28.957Z,22.03
2019-03-23T05:19:57.416Z,26.53
2019-03-23T05:22:25.951Z,20.17
2019-03-23T05:24:54.424Z,19.20
2019-03-23T05:27:42.235Z,18.33
2019-03-23T05:30:10.968Z,16.70
2019-03-23T05:32:39.493Z,24.40
2019-03-23T05:35:08.031Z,22.97
2019-03-23T05:37:36.477Z,30.63
2019-03-23T05:40:06.644Z,36.87
2019-03-23T05:42:35.647Z,32.33
2019-03-23T05:45:06.214Z,33.73
2019-03-23T05:47:34.688Z,49.63
2019-03-23T05:50:04.175Z,46.57
2019-03-23T05:52:32.656Z,24.77
2019-03-23T05:55:01.124Z,40.23
2019-03-23T05:57:29.839Z,45.53
2019-03-23T05:59:58.324Z,20.43
2019-03-23T06:02:26.846Z,31.53
2019-03-23T06:04:55.422Z,21.30
2019-03-23T06:07:23.951Z,25.47
2019-03-23T06:09:52.419Z,22.93
2019-03-23T06:12:20.878Z,33.10
2019-03-23T06:14:49.785Z,28.67
2019-03-23T06:17:18.242Z,31.67
2019-03-23T06:19:46.701Z,22.37
2019-03-23T06:22:15.215Z,18.70
2019-03-23T06:24:43.999Z,19.37
2019-03-23T06:27:12.463Z,15.77
2019-03-23T06:29:40.925Z,16.30
2019-03-23T06:32:09.383Z,13.90
2019-03-23T06:34:37.825Z,16.00
2019-03-23T06:37:06.320Z,17.53
2019-03-23T06:39:34.825Z,13.57
2019-03-23T06:42:03.284Z,18.33
2019-03-23T06:44:31.741Z,13.60
2019-03-23T06:47:00.222Z,11.77
2019-03-23T06:49:28.679Z,19.83
2019-03-23T06:51:57.123Z,11.83
2019-03-23T06:54:25.603Z,11.47
2019-03-23T06:56:54.055Z,11.97
2019-03-23T06:59:22.511Z,16.97
2019-03-23T07:04:33.467Z,9.10
2019-03-23T07:07:01.946Z,13.97
2019-03-23T07:09:30.389Z,12.53
2019-03-23T07:11:58.851Z,13.70
2019-03-23T07:14:27.303Z,10.23
2019-03-23T07:16:55.797Z,11.90
2019-03-23T07:19:24.320Z,14.23
2019-03-23T07:21:52.939Z,14.57
2019-03-23T07:24:21.475Z,15.03
2019-03-23T07:26:49.917Z,11.17
2019-03-23T07:29:18.379Z,13.30
2019-03-23T07:31:46.919Z,15.07
2019-03-23T07:34:15.505Z,12.40
2019-03-23T07:36:43.967Z,14.43
2019-03-23T07:39:12.493Z,10.43
2019-03-23T07:41:40.954Z,14.97
2019-03-23T07:44:09.410Z,14.77
2019-03-23T07:46:37.879Z,16.03
2019-03-23T07:49:06.380Z,14.03
2019-03-23T07:51:34.847Z,8.97
2019-03-23T07:54:03.358Z,8.67
2019-03-23T07:56:31.857Z,9.90
2019-03-23T07:59:00.311Z,6.70
2019-03-23T08:01:28.825Z,8.37
2019-03-23T08:03:57.360Z,12.97
2019-03-23T08:06:25.880Z,11.63
2019-03-23T08:08:54.357Z,11.13
2019-03-23T08:11:22.819Z,12.70
2019-03-23T08:13:51.391Z,13.00
2019-03-23T08:16:19.928Z,15.87
2019-03-23T08:18:48.394Z,12.50
2019-03-23T08:21:16.923Z,13.37
2019-03-23T08:24:04.752Z,14.30
2019-03-23T08:26:33.282Z,13.10
2019-03-23T08:29:03.259Z,12.43
2019-03-23T08:31:32.099Z,14.40
2019-03-23T08:34:00.558Z,15.43
2019-03-23T08:36:29.031Z,19.37
2019-03-23T08:38:57.575Z,21.27
2019-03-23T08:41:26.038Z,14.57
2019-03-23T08:43:54.567Z,15.17
2019-03-23T08:46:23.036Z,14.83
2019-03-23T08:48:51.561Z,14.23
2019-03-23T08:51:20.062Z,12.33
2019-03-23T08:53:48.510Z,9.10
2019-03-23T08:56:17.018Z,14.50
2019-03-23T08:58:44.458Z,12.73
2019-03-23T09:01:12.920Z,13.33
2019-03-23T09:03:51.795Z,14.40
2019-03-23T09:06:11.581Z,10.60
2019-03-23T09:08:40.058Z,12.37
2019-03-23T09:11:08.514Z,13.33
2019-03-23T09:13:40.904Z,14.33
2019-03-23T09:16:07.191Z,10.77
2019-03-23T09:18:35.659Z,19.37
2019-03-23T09:21:04.127Z,14.77
2019-03-23T09:23:32.769Z,10.00
2019-03-23T09:26:01.239Z,15.13
2019-03-23T09:28:29.690Z,14.77
2019-03-23T09:30:58.164Z,10.27
2019-03-23T09:33:26.625Z,11.20
2019-03-23T09:35:55.109Z,12.17
2019-03-23T09:38:23.548Z,9.23
2019-03-23T09:40:52.012Z,14.83
2019-03-23T09:43:20.471Z,11.13
2019-03-23T09:45:49.009Z,10.97
2019-03-23T09:48:17.479Z,13.07
2019-03-23T09:50:45.949Z,14.50
2019-03-23T09:53:14.477Z,12.17
2019-03-23T09:55:42.967Z,12.77
2019-03-23T09:58:11.463Z,11.47
2019-03-23T10:00:39.931Z,14.27
2019-03-23T10:03:08.397Z,16.77
2019-03-23T10:05:36.866Z,12.27
2019-03-23T10:08:05.439Z,16.30
2019-03-23T10:10:33.912Z,10.97
2019-03-23T10:13:02.457Z,13.57
2019-03-23T10:15:31.027Z,16.27
2019-03-23T10:18:01.602Z,11.83
2019-03-23T10:20:29.734Z,12.80
2019-03-23T10:22:58.195Z,12.33
2019-03-23T10:25:26.695Z,14.57
2019-03-23T10:27:57.150Z,16.23
2019-03-23T10:30:25.333Z,17.17
2019-03-23T10:32:53.789Z,17.13
2019-03-23T10:35:22.293Z,14.23
2019-03-23T10:37:50.827Z,11.93
2019-03-23T10:40:19.282Z,15.17
2019-03-23T10:42:47.748Z,17.13
2019-03-23T10:45:16.261Z,27.90
2019-03-23T10:47:44.845Z,14.47
2019-03-23T10:50:13.633Z,13.70
2019-03-23T10:52:42.087Z,15.27
2019-03-23T10:55:10.743Z,17.80
2019-03-23T10:57:39.271Z,15.30
2019-03-23T11:00:11.002Z,11.90
2019-03-23T11:02:41.246Z,12.70
2019-03-23T11:05:11.221Z,11.40
2019-03-23T11:07:39.787Z,12.73
2019-03-23T11:10:14.760Z,15.93
2019-03-23T11:12:43.256Z,10.17
2019-03-23T11:15:11.850Z,11.90
2019-03-23T11:17:40.314Z,16.03
2019-03-23T11:20:11.741Z,18.43
2019-03-23T11:22:40.207Z,15.37
2019-03-23T11:25:09.108Z,13.87
2019-03-23T11:27:37.564Z,10.87
2019-03-23T11:30:13.682Z,13.73
2019-03-23T11:32:42.221Z,13.20
2019-03-23T11:35:30.102Z,8.97
2019-03-23T11:37:58.845Z,11.23
2019-03-23T11:40:28.365Z,12.07
2019-03-23T11:42:56.834Z,11.27
2019-03-23T11:45:25.278Z,11.10
2019-03-23T11:47:53.770Z,13.03
2019-03-23T11:50:22.239Z,12.23
2019-03-23T11:52:50.703Z,10.70
2019-03-23T11:55:19.161Z,12.50
2019-03-23T11:57:47.620Z,13.53
2019-03-23T12:00:16.535Z,12.53
2019-03-23T12:02:45.090Z,12.57
2019-03-23T12:05:14.320Z,14.53
2019-03-23T12:07:42.811Z,11.67
2019-03-23T12:10:12.735Z,14.03
2019-03-23T12:12:41.337Z,12.80
2019-03-23T12:15:12.220Z,12.60
2019-03-23T12:17:40.759Z,16.40
2019-03-23T12:20:10.256Z,22.93
2019-03-23T12:22:38.783Z,11.50
2019-03-23T12:25:07.923Z,11.63
2019-03-23T12:27:36.424Z,11.63
2019-03-23T12:30:07.848Z,13.03
2019-03-23T12:32:36.329Z,14.43
2019-03-23T12:35:07.233Z,12.70
2019-03-23T12:37:35.771Z,11.27
2019-03-23T12:40:06.175Z,12.00
2019-03-23T12:42:34.632Z,13.03
2019-03-23T12:45:03.100Z,10.33
2019-03-23T12:47:31.640Z,13.83
2019-03-23T12:50:00.316Z,13.03
2019-03-23T12:52:28.835Z,9.77
2019-03-23T12:54:57.294Z,11.90
2019-03-23T12:57:25.810Z,8.50
2019-03-23T12:59:54.360Z,16.17
2019-03-23T13:02:30.174Z,11.57
2019-03-23T13:04:58.634Z,11.27
2019-03-23T13:07:27.338Z,10.60
2019-03-23T13:09:55.807Z,8.20
2019-03-23T13:12:24.357Z,11.03
2019-03-23T13:14:52.896Z,9.60
2019-03-23T13:17:21.439Z,12.73
2019-03-23T13:19:49.888Z,12.80
2019-03-23T13:22:18.395Z,13.30
2019-03-23T13:24:47.004Z,9.70
2019-03-23T13:27:15.530Z,9.57
2019-03-23T13:29:44.021Z,8.57
2019-03-23T13:32:12.495Z,11.33
2019-03-23T13:34:40.949Z,13.20
2019-03-23T13:37:09.434Z,8.37
2019-03-23T13:39:37.906Z,7.77
2019-03-23T13:42:06.431Z,10.23
2019-03-23T13:44:34.880Z,8.13
2019-03-23T13:47:03.384Z,7.10
2019-03-23T13:49:31.825Z,9.00
2019-03-23T13:52:01.843Z,10.17
2019-03-23T13:54:30.671Z,10.43
2019-03-23T13:56:59.272Z,8.93
2019-03-23T13:59:27.739Z,11.10
2019-03-23T14:01:56.299Z,8.73
2019-03-23T14:04:24.741Z,9.43
2019-03-23T14:06:53.207Z,8.07
2019-03-23T14:09:21.747Z,8.67
2019-03-23T14:11:54.989Z,9.83
2019-03-23T14:14:20.531Z,12.37
2019-03-23T14:16:48.993Z,9.37
2019-03-23T14:19:17.445Z,11.70
2019-03-23T14:21:45.921Z,10.17
2019-03-23T14:24:14.370Z,8.83
2019-03-23T14:26:42.825Z,8.63
2019-03-23T14:29:11.367Z,12.10
2019-03-23T14:31:39.892Z,8.47
2019-03-23T14:34:08.348Z,10.43
2019-03-23T14:36:36.912Z,13.90
2019-03-23T14:39:07.011Z,12.73
2019-03-23T14:41:35.472Z,7.40
2019-03-23T14:44:04.005Z,11.00
2019-03-23T14:46:32.464Z,7.97
2019-03-23T14:49:01.543Z,12.87
2019-03-23T14:54:12.987Z,11.97
2019-03-23T14:56:41.440Z,8.07
2019-03-23T14:59:09.926Z,12.33
2019-03-23T15:01:40.080Z,16.83
2019-03-23T15:04:08.524Z,13.23
2019-03-23T15:06:37.027Z,11.67
2019-03-23T15:09:06.627Z,10.17
2019-03-23T15:11:35.081Z,10.50
2019-03-23T15:14:03.546Z,10.93
2019-03-23T15:16:32.010Z,12.70
2019-03-23T15:19:00.473Z,11.60
2019-03-23T15:21:28.930Z,10.70
2019-03-23T15:23:57.398Z,12.43
2019-03-23T15:26:25.854Z,11.40
2019-03-23T15:28:54.350Z,16.80
2019-03-23T15:31:22.815Z,15.07
2019-03-23T15:33:51.267Z,22.63
2019-03-23T15:36:19.731Z,16.37
2019-03-23T15:38:48.197Z,13.37
2019-03-23T15:41:16.656Z,20.40
2019-03-23T15:43:45.110Z,12.13
2019-03-23T15:46:13.677Z,14.77
2019-03-23T15:48:42.130Z,14.73
2019-03-23T15:51:10.598Z,17.73
2019-03-23T15:53:39.124Z,24.13
2019-03-23T15:56:07.848Z,20.57
2019-03-23T15:58:36.312Z,19.90
2019-03-23T16:01:04.915Z,21.37
2019-03-23T16:03:33.446Z,16.57
2019-03-23T16:06:01.910Z,18.23
2019-03-23T16:08:42.567Z,16.80
2019-03-23T16:11:11.013Z,21.13
2019-03-23T16:13:39.487Z,18.17
2019-03-23T16:16:08.029Z,16.83
2019-03-23T16:18:36.565Z,19.80
2019-03-23T16:21:05.084Z,21.13
2019-03-23T16:23:33.544Z,21.57
2019-03-23T16:26:02.008Z,20.20
2019-03-23T16:28:30.483Z,22.97
2019-03-23T16:30:59.011Z,28.13
2019-03-23T16:33:27.484Z,32.23
2019-03-23T16:35:55.955Z,33.93
2019-03-23T16:38:24.447Z,31.77
2019-03-23T16:40:52.911Z,32.03
2019-03-23T16:43:21.367Z,33.40
2019-03-23T16:45:49.843Z,33.87
2019-03-23T16:48:18.311Z,35.43
2019-03-23T16:50:46.867Z,35.63
2019-03-23T16:53:15.325Z,25.67
2019-03-23T16:55:43.786Z,21.57
2019-03-23T16:58:15.944Z,23.13
2019-03-23T17:00:42.489Z,30.37
2019-03-23T17:03:11.035Z,28.60
2019-03-23T17:05:39.571Z,34.10
2019-03-23T17:08:08.072Z,34.57
2019-03-23T17:10:36.899Z,36.40
2019-03-23T17:13:05.530Z,37.67
2019-03-23T17:15:34.006Z,30.57
2019-03-23T17:18:02.475Z,33.23
2019-03-23T17:20:30.972Z,32.77
2019-03-23T17:22:59.413Z,31.20
2019-03-23T17:25:28.020Z,29.17
2019-03-23T17:27:56.469Z,41.27
2019-03-23T17:30:25.013Z,46.40
2019-03-23T17:32:53.551Z,50.37
2019-03-23T17:35:22.019Z,57.97
2019-03-23T17:37:50.506Z,49.57
2019-03-23T17:40:19.046Z,49.60
2019-03-23T17:42:47.849Z,45.87
2019-03-23T17:45:16.318Z,41.43
2019-03-23T17:47:44.819Z,49.70
2019-03-23T17:50:13.609Z,57.50
2019-03-23T17:52:42.451Z,75.33
2019-03-23T17:55:11.122Z,84.47
2019-03-23T17:57:39.602Z,90.17
2019-03-23T18:00:09.735Z,120.63
2019-03-23T18:02:38.232Z,121.10
2019-03-23T18:05:12.218Z,120.47
2019-03-23T18:07:40.977Z,103.27
2019-03-23T18:10:10.031Z,107.50
2019-03-23T18:12:38.832Z,91.70
2019-03-23T18:15:12.439Z,90.53
2019-03-23T18:17:40.934Z,82.87
2019-03-23T18:20:09.752Z,80.87
2019-03-23T18:22:38.262Z,77.77
2019-03-23T18:25:07.291Z,77.43
2019-03-23T18:27:35.833Z,70.77
2019-03-23T18:30:07.300Z,80.73
2019-03-23T18:32:35.885Z,71.30
2019-03-23T18:35:06.203Z,72.20
2019-03-23T18:37:34.707Z,72.97
2019-03-23T18:40:05.007Z,79.30
2019-03-23T18:42:33.482Z,91.57
2019-03-23T18:45:01.983Z,69.40
2019-03-23T18:47:30.438Z,54.87
2019-03-23T18:50:07.779Z,62.07
2019-03-23T18:52:36.243Z,60.10
2019-03-23T18:55:06.450Z,49.47
2019-03-23T18:57:34.921Z,52.27
2019-03-23T19:00:05.972Z,51.47
2019-03-23T19:02:34.438Z,55.27
2019-03-23T19:05:02.929Z,51.87
2019-03-23T19:07:31.445Z,48.40
2019-03-23T19:09:59.904Z,44.93
2019-03-23T19:12:28.365Z,45.43
2019-03-23T19:14:56.835Z,45.80
2019-03-23T19:17:25.331Z,51.40
2019-03-23T19:19:53.857Z,45.43
2019-03-23T19:22:22.316Z,50.80
2019-03-23T19:24:50.814Z,48.73
2019-03-23T19:27:19.271Z,46.07
2019-03-23T19:29:47.736Z,43.67
2019-03-23T19:32:16.235Z,42.70
2019-03-23T19:34:44.696Z,38.63
2019-03-23T19:37:13.155Z,42.83
2019-03-23T19:39:41.625Z,45.17
2019-03-23T19:42:10.083Z,41.53
2019-03-23T19:44:38.573Z,36.27
2019-03-23T19:47:07.191Z,41.80
2019-03-23T19:49:35.642Z,37.00
2019-03-23T19:52:04.224Z,38.93
2019-03-23T19:54:32.753Z,36.67
2019-03-23T19:57:01.212Z,35.57
2019-03-23T19:59:30.197Z,41.93
2019-03-23T20:01:58.649Z,37.93
2019-03-23T20:04:27.113Z,36.87
2019-03-23T20:06:55.665Z,36.57
2019-03-23T20:09:24.161Z,42.23
2019-03-23T20:11:52.627Z,40.60
2019-03-23T20:14:21.351Z,41.00
2019-03-23T20:16:49.809Z,38.57
2019-03-23T20:19:18.288Z,38.20
2019-03-23T20:21:46.839Z,36.33
2019-03-23T20:24:15.298Z,40.70
2019-03-23T20:26:43.767Z,34.60
2019-03-23T20:29:12.236Z,35.30
2019-03-23T20:31:40.708Z,36.57
2019-03-23T20:34:09.189Z,34.47
2019-03-23T20:36:37.659Z,42.77
2019-03-23T20:39:07.687Z,42.47
2019-03-23T20:41:36.146Z,47.43
2019-03-23T20:44:09.424Z,67.60
2019-03-23T20:46:35.567Z,47.20
2019-03-23T20:49:04.101Z,46.67
2019-03-23T20:51:32.586Z,49.33
2019-03-23T20:54:01.677Z,44.07
2019-03-23T20:56:30.149Z,44.90
2019-03-23T20:58:58.659Z,44.87
2019-03-23T21:01:27.641Z,41.93
2019-03-23T21:03:56.192Z,38.73
2019-03-23T21:06:25.439Z,37.73
2019-03-23T21:08:53.911Z,35.97
2019-03-23T21:11:22.459Z,42.00
2019-03-23T21:13:50.932Z,44.40
2019-03-23T21:16:19.425Z,42.93
2019-03-23T21:18:47.887Z,38.33
2019-03-23T21:21:16.369Z,41.20
2019-03-23T21:23:44.839Z,42.07
2019-03-23T21:26:13.305Z,41.90
2019-03-23T21:28:41.770Z,43.87
2019-03-23T21:31:10.281Z,42.97
2019-03-23T21:33:39.177Z,46.33
2019-03-23T21:36:07.791Z,51.27
2019-03-23T21:38:36.331Z,56.00
2019-03-23T21:41:04.864Z,52.03
2019-03-23T21:43:33.611Z,55.10
2019-03-23T21:46:02.076Z,59.30
2019-03-23T21:48:30.538Z,55.20
2019-03-23T21:51:18.358Z,62.70
2019-03-23T21:53:46.817Z,59.37
2019-03-23T21:56:15.279Z,63.17
2019-03-23T21:58:44.699Z,58.97
2019-03-23T22:01:13.155Z,63.33
2019-03-23T22:03:41.613Z,67.37
2019-03-23T22:06:10.077Z,62.00
2019-03-23T22:08:38.608Z,69.23
2019-03-23T22:11:07.092Z,70.93
2019-03-23T22:13:35.613Z,62.10
2019-03-23T22:16:05.192Z,63.23
2019-03-23T22:18:34.005Z,64.80
2019-03-23T22:21:02.540Z,67.07
2019-03-23T22:23:31.003Z,60.90
2019-03-23T22:25:59.552Z,64.83
2019-03-23T22:28:28.083Z,69.50
2019-03-23T22:30:56.553Z,69.67
2019-03-23T22:33:25.028Z,67.00
2019-03-23T22:36:12.835Z,67.87
2019-03-23T22:38:41.330Z,70.70
2019-03-23T22:41:09.856Z,69.20
2019-03-23T22:43:39.190Z,66.17
2019-03-23T22:46:07.705Z,64.67
2019-03-23T22:48:36.239Z,75.40
2019-03-23T22:51:04.760Z,67.17
2019-03-23T22:53:33.294Z,75.00
2019-03-23T22:56:01.812Z,72.80
2019-03-23T22:58:30.275Z,74.77
2019-03-23T23:00:58.756Z,63.53
2019-03-23T23:03:27.321Z,68.37
2019-03-23T23:05:55.856Z,65.80
2019-03-23T23:08:24.323Z,69.77
2019-03-23T23:10:52.900Z,54.47
2019-03-23T23:13:21.437Z,53.77
2019-03-23T23:15:49.975Z,48.50
2019-03-23T23:18:18.484Z,49.40
2019-03-23T23:20:47.023Z,49.03
2019-03-23T23:23:15.465Z,43.23
2019-03-23T23:25:43.939Z,39.70
2019-03-23T23:28:12.411Z,43.07
2019-03-23T23:30:40.856Z,38.40
2019-03-23T23:33:09.331Z,44.17
2019-03-23T23:35:37.795Z,38.27
2019-03-23T23:38:06.265Z,40.03
2019-03-23T23:40:34.735Z,34.90
2019-03-23T23:43:03.205Z,43.80
2019-03-23T23:45:31.675Z,40.90
2019-03-23T23:48:00.131Z,43.40
2019-03-23T23:50:28.623Z,37.87
2019-03-23T23:52:57.078Z,45.20
2019-03-23T23:55:25.614Z,40.70
2019-03-23T23:57:54.062Z,42.07
